createdAt,value
2023-04-02T00:00:22.223Z,3.31
2023-04-02T00:02:59.815Z,3.31
2023-04-02T00:05:51.710Z,3.16
2023-04-02T00:08:26.795Z,3.16
2023-04-02T00:10:56.717Z,3.21
2023-04-02T00:13:32.877Z,3.10
2023-04-02T00:16:03.267Z,3.14
2023-04-02T00:18:31.857Z,3.05
2023-04-02T00:21:09.108Z,3.06
2023-04-02T00:23:37.793Z,2.98
2023-04-02T00:26:08.292Z,2.99
2023-04-02T00:28:37.737Z,3.10
2023-04-02T00:31:06.577Z,3.12
2023-04-02T00:33:34.582Z,3.08
2023-04-02T00:36:08.712Z,3.04
2023-04-02T00:38:36.859Z,2.93
2023-04-02T00:41:07.656Z,2.90
2023-04-02T00:43:39.601Z,2.95
2023-04-02T00:46:14.194Z,2.94
2023-04-02T00:48:46.551Z,2.99
2023-04-02T00:51:19.176Z,2.96
2023-04-02T00:53:49.105Z,2.97
2023-04-02T00:56:25.547Z,2.89
2023-04-02T00:58:57.024Z,2.84
2023-04-02T01:01:28.332Z,2.84
2023-04-02T01:03:59.136Z,2.95
2023-04-02T01:06:31.252Z,2.82
2023-04-02T01:09:15.858Z,2.91
2023-04-02T01:12:01.910Z,2.79
2023-04-02T01:14:44.176Z,2.70
2023-04-02T01:17:26.360Z,2.77
2023-04-02T01:20:37.835Z,2.78
2023-04-02T01:23:11.370Z,2.86
2023-04-02T01:25:46.707Z,2.85
2023-04-02T01:28:20.477Z,2.75
2023-04-02T01:30:53.675Z,2.66
2023-04-02T01:33:24.652Z,2.76
2023-04-02T01:35:57.959Z,2.78
2023-04-02T01:38:29.952Z,2.64
2023-04-02T01:41:04.978Z,2.76
2023-04-02T01:43:40.277Z,2.77
2023-04-02T01:46:26.810Z,2.69
2023-04-02T01:48:55.391Z,2.78
2023-04-02T01:51:29.452Z,2.81
2023-04-02T01:54:01.057Z,2.72
2023-04-02T01:56:30.383Z,2.84
2023-04-02T01:58:59.772Z,2.85
2023-04-02T02:01:36.825Z,2.91
2023-04-02T02:04:07.411Z,2.78
2023-04-02T02:06:36.098Z,2.74
2023-04-02T02:09:06.269Z,2.75
2023-04-02T02:11:36.617Z,2.81
2023-04-02T02:14:14.132Z,2.76
2023-04-02T02:16:46.796Z,2.80
2023-04-02T02:19:28.190Z,2.70
2023-04-02T02:21:59.272Z,2.82
2023-04-02T02:24:31.583Z,2.79
2023-04-02T02:27:22.430Z,2.77
2023-04-02T02:29:56.368Z,2.87
2023-04-02T02:32:30.062Z,2.87
2023-04-02T02:35:04.435Z,2.81
2023-04-02T02:37:38.153Z,2.78
2023-04-02T02:40:12.476Z,2.81
2023-04-02T02:42:45.403Z,2.75
2023-04-02T02:45:18.954Z,2.82
2023-04-02T02:47:50.777Z,2.74
2023-04-02T02:50:23.019Z,2.74
2023-04-02T02:52:54.940Z,2.75
2023-04-02T02:55:27.436Z,2.90
2023-04-02T02:58:12.628Z,2.90
2023-04-02T03:00:49.220Z,2.79
2023-04-02T03:03:23.141Z,2.75
2023-04-02T03:05:59.182Z,2.82
2023-04-02T03:08:33.450Z,2.74
2023-04-02T03:11:09.017Z,2.80
2023-04-02T03:13:39.999Z,2.75
2023-04-02T03:16:16.165Z,2.74
2023-04-02T03:18:52.846Z,2.84
2023-04-02T03:21:32.112Z,2.71
2023-04-02T03:24:04.384Z,2.74
2023-04-02T03:26:39.464Z,2.65
2023-04-02T03:29:14.908Z,2.78
2023-04-02T03:31:48.151Z,2.73
2023-04-02T03:34:25.547Z,2.87
2023-04-02T03:36:59.508Z,2.85
2023-04-02T03:39:34.401Z,2.86
2023-04-02T03:42:08.622Z,2.87
2023-04-02T03:44:45.466Z,2.93
2023-04-02T03:47:19.190Z,2.78
2023-04-02T03:49:54.871Z,2.96
2023-04-02T03:52:27.111Z,2.81
2023-04-02T03:54:59.880Z,2.98
2023-04-02T03:57:47.724Z,2.76
2023-04-02T04:00:21.469Z,2.93
2023-04-02T04:02:59.967Z,2.78
2023-04-02T04:05:35.814Z,2.72
2023-04-02T04:08:07.549Z,2.74
2023-04-02T04:10:36.320Z,2.72
2023-04-02T04:13:10.332Z,2.71
2023-04-02T04:15:43.485Z,2.73
2023-04-02T04:18:24.079Z,2.73
2023-04-02T04:20:58.314Z,2.72
2023-04-02T04:26:10.457Z,2.82
2023-04-02T04:28:58.225Z,2.76
2023-04-02T04:31:31.205Z,2.99
2023-04-02T04:34:04.420Z,2.88
2023-04-02T04:36:53.947Z,2.96
2023-04-02T04:39:31.780Z,3.05
2023-04-02T04:42:02.393Z,3.06
2023-04-02T04:44:41.135Z,3.09
2023-04-02T04:47:16.558Z,3.04
2023-04-02T04:49:48.270Z,3.11
2023-04-02T04:52:23.175Z,3.06
2023-04-02T04:54:52.031Z,2.90
2023-04-02T04:57:32.393Z,2.87
2023-04-02T05:00:11.137Z,2.84
2023-04-02T05:02:46.127Z,2.91
2023-04-02T05:05:21.103Z,3.02
2023-04-02T05:07:59.053Z,3.06
2023-04-02T05:10:34.256Z,3.14
2023-04-02T05:13:05.663Z,2.80
2023-04-02T05:15:40.091Z,2.98
2023-04-02T05:18:19.026Z,3.06
2023-04-02T05:20:54.021Z,3.18
2023-04-02T05:23:28.084Z,3.13
2023-04-02T05:26:04.952Z,3.13
2023-04-02T05:28:39.971Z,3.26
2023-04-02T05:31:13.474Z,3.19
2023-04-02T05:33:47.556Z,3.20
2023-04-02T05:36:21.599Z,3.13
2023-04-02T05:38:56.252Z,3.14
2023-04-02T05:41:36.828Z,3.14
2023-04-02T05:44:11.814Z,3.19
2023-04-02T05:46:45.235Z,3.17
2023-04-02T05:49:21.445Z,3.15
2023-04-02T05:51:55.873Z,3.13
2023-04-02T05:54:31.492Z,3.43
2023-04-02T05:57:03.768Z,3.42
2023-04-02T05:59:38.359Z,3.51
2023-04-02T06:02:12.832Z,3.40
2023-04-02T06:04:47.564Z,3.41
2023-04-02T06:07:21.499Z,3.26
2023-04-02T06:09:58.108Z,3.40
2023-04-02T06:15:01.941Z,3.33
2023-04-02T06:17:44.274Z,3.37
2023-04-02T06:20:16.484Z,3.60
2023-04-02T06:22:50.513Z,3.51
2023-04-02T06:25:24.990Z,3.66
2023-04-02T06:27:57.988Z,3.55
2023-04-02T06:30:29.320Z,3.63
2023-04-02T06:32:57.810Z,3.80
2023-04-02T06:35:27.045Z,3.85
2023-04-02T06:38:04.742Z,3.69
2023-04-02T06:40:42.583Z,3.74
2023-04-02T06:43:33.414Z,3.67
2023-04-02T06:46:26.918Z,3.75
2023-04-02T06:49:10.735Z,3.72
2023-04-02T06:51:41.815Z,3.77
2023-04-02T06:54:16.058Z,3.86
2023-04-02T06:56:49.687Z,3.93
2023-04-02T06:59:27.294Z,4.06
2023-04-02T07:02:03.418Z,4.08
2023-04-02T07:04:32.121Z,4.12
2023-04-02T07:07:00.473Z,4.20
2023-04-02T07:09:32.875Z,4.28
2023-04-02T07:12:12.485Z,4.16
2023-04-02T07:14:41.140Z,4.31
2023-04-02T07:17:16.788Z,4.46
2023-04-02T07:19:49.372Z,4.53
2023-04-02T07:22:20.759Z,4.68
2023-04-02T07:24:55.451Z,4.73
2023-04-02T07:27:24.775Z,4.83
2023-04-02T07:29:52.675Z,4.72
2023-04-02T07:32:20.756Z,4.86
2023-04-02T07:34:49.002Z,5.08
2023-04-02T07:37:17.093Z,4.99
2023-04-02T07:39:44.972Z,4.85
2023-04-02T07:42:12.994Z,5.01
2023-04-02T07:44:42.246Z,5.10
2023-04-02T07:47:10.598Z,5.11
2023-04-02T07:49:38.717Z,4.94
2023-04-02T07:52:07.278Z,5.04
2023-04-02T07:54:35.741Z,4.89
2023-04-02T07:57:03.804Z,4.87
2023-04-02T07:59:31.777Z,4.98
2023-04-02T08:02:01.122Z,4.99
2023-04-02T08:04:29.108Z,5.16
2023-04-02T08:06:57.176Z,5.02
2023-04-02T08:09:25.136Z,4.94
2023-04-02T08:11:53.105Z,4.77
2023-04-02T08:14:21.029Z,4.80
2023-04-02T08:16:51.007Z,4.84
2023-04-02T08:19:20.833Z,4.87
2023-04-02T08:21:51.480Z,4.84
2023-04-02T08:24:21.578Z,4.95
2023-04-02T08:26:51.409Z,5.04
2023-04-02T08:29:19.345Z,5.27
2023-04-02T08:31:47.435Z,5.10
2023-04-02T08:34:15.443Z,5.21
2023-04-02T08:36:45.468Z,5.27
2023-04-02T08:39:13.850Z,5.42
2023-04-02T08:41:48.703Z,5.24
2023-04-02T08:44:32.391Z,5.04
2023-04-02T08:47:04.394Z,5.00
2023-04-02T08:49:36.288Z,5.11
2023-04-02T08:52:05.666Z,5.05
2023-04-02T08:54:37.907Z,5.08
2023-04-02T08:57:16.609Z,5.05
2023-04-02T08:59:45.907Z,5.09
2023-04-02T09:02:29.948Z,5.11
2023-04-02T09:04:59.966Z,5.00
2023-04-02T09:07:29.690Z,4.51
2023-04-02T09:09:58.149Z,4.75
2023-04-02T09:12:29.523Z,4.90
2023-04-02T09:15:16.226Z,4.87
2023-04-02T09:17:53.556Z,5.13
2023-04-02T09:20:26.153Z,4.96
2023-04-02T09:22:57.684Z,5.08
2023-04-02T09:25:27.903Z,4.95
2023-04-02T09:27:58.858Z,4.75
2023-04-02T09:30:41.896Z,4.92
2023-04-02T09:33:10.164Z,4.86
2023-04-02T09:35:54.299Z,4.90
2023-04-02T09:38:28.082Z,4.97
2023-04-02T09:41:00.601Z,5.10
2023-04-02T09:43:31.297Z,5.05
2023-04-02T09:46:02.029Z,5.02
2023-04-02T09:48:33.493Z,5.10
2023-04-02T09:51:14.580Z,5.12
2023-04-02T09:53:45.886Z,5.27
2023-04-02T09:56:19.802Z,5.55
2023-04-02T09:59:04.771Z,5.69
2023-04-02T10:01:34.838Z,5.36
2023-04-02T10:04:04.809Z,5.70
2023-04-02T10:06:34.319Z,5.95
2023-04-02T10:09:22.125Z,6.05
2023-04-02T10:11:51.836Z,6.09
2023-04-02T10:14:24.698Z,6.05
2023-04-02T10:16:56.614Z,6.02
2023-04-02T10:19:30.673Z,5.98
2023-04-02T10:22:01.428Z,6.07
2023-04-02T10:24:30.716Z,6.25
2023-04-02T10:27:09.747Z,6.15
2023-04-02T10:29:55.758Z,6.11
2023-04-02T10:32:31.045Z,6.35
2023-04-02T10:35:04.067Z,6.20
2023-04-02T10:37:55.996Z,5.92
2023-04-02T10:40:29.603Z,6.22
2023-04-02T10:43:23.693Z,6.36
2023-04-02T10:45:57.702Z,6.38
2023-04-02T10:48:34.960Z,6.05
2023-04-02T10:51:07.800Z,6.39
2023-04-02T10:53:47.426Z,6.41
2023-04-02T10:56:17.067Z,6.41
2023-04-02T10:58:57.460Z,6.33
2023-04-02T11:01:28.007Z,6.39
2023-04-02T11:04:00.446Z,6.39
2023-04-02T11:06:33.893Z,6.19
2023-04-02T11:09:05.879Z,6.03
2023-04-02T11:11:39.637Z,6.36
2023-04-02T11:14:14.769Z,6.24
2023-04-02T11:16:44.764Z,6.34
2023-04-02T11:19:28.749Z,6.49
2023-04-02T11:22:01.328Z,6.22
2023-04-02T11:24:39.682Z,6.18
2023-04-02T11:27:22.365Z,6.13
2023-04-02T11:29:53.482Z,6.24
2023-04-02T11:33:05.766Z,6.20
2023-04-02T11:35:40.796Z,6.40
2023-04-02T11:38:52.476Z,6.30
2023-04-02T11:41:57.872Z,5.99
2023-04-02T11:44:33.299Z,6.24
2023-04-02T11:47:21.609Z,6.39
2023-04-02T11:50:38.699Z,6.55
2023-04-02T11:53:24.819Z,6.67
2023-04-02T11:56:20.980Z,7.18
2023-04-02T11:59:06.116Z,7.18
2023-04-02T12:02:00.661Z,7.61
2023-04-02T12:05:14.479Z,7.80
2023-04-02T12:08:05.728Z,7.95
2023-04-02T12:10:49.966Z,7.48
2023-04-02T12:13:20.995Z,7.66
2023-04-02T12:15:50.325Z,7.32
2023-04-02T12:18:24.190Z,7.35
2023-04-02T12:20:55.085Z,7.20
2023-04-02T12:23:29.143Z,7.26
2023-04-02T12:26:02.085Z,7.39
2023-04-02T12:28:33.727Z,7.46
2023-04-02T12:31:12.562Z,7.58
2023-04-02T12:33:43.664Z,7.64
2023-04-02T12:36:20.710Z,9.76
2023-04-02T12:38:51.157Z,8.38
2023-04-02T12:41:24.982Z,8.07
2023-04-02T12:44:00.329Z,9.36
2023-04-02T12:46:29.301Z,9.37
2023-04-02T12:49:04.918Z,8.12
2023-04-02T12:51:33.195Z,8.17
2023-04-02T12:54:01.158Z,8.25
2023-04-02T12:56:29.068Z,7.63
2023-04-02T12:58:58.571Z,7.38
2023-04-02T13:01:29.286Z,8.61
2023-04-02T13:04:06.569Z,10.99
2023-04-02T13:06:35.221Z,12.92
2023-04-02T13:09:06.535Z,12.32
2023-04-02T13:11:36.798Z,10.89
2023-04-02T13:14:07.439Z,10.45
2023-04-02T13:16:37.513Z,9.78
2023-04-02T13:19:29.723Z,10.37
2023-04-02T13:21:59.673Z,10.48
2023-04-02T13:24:29.195Z,10.22
2023-04-02T13:26:59.125Z,9.77
2023-04-02T13:29:29.516Z,9.13
2023-04-02T13:32:01.101Z,8.83
2023-04-02T13:34:31.001Z,8.43
2023-04-02T13:36:59.690Z,8.72
2023-04-02T13:39:30.096Z,8.40
2023-04-02T13:41:59.843Z,8.35
2023-04-02T13:44:30.326Z,9.35
2023-04-02T13:47:02.079Z,10.36
2023-04-02T13:49:32.415Z,9.81
2023-04-02T13:52:05.259Z,9.10
2023-04-02T13:54:44.735Z,8.36
2023-04-02T13:57:12.769Z,8.85
2023-04-02T13:59:40.698Z,9.91
2023-04-02T14:02:12.764Z,10.14
2023-04-02T14:04:47.060Z,9.22
2023-04-02T14:07:41.316Z,9.15
2023-04-02T14:10:23.554Z,9.82
2023-04-02T14:13:09.785Z,10.28
2023-04-02T14:15:48.992Z,9.59
2023-04-02T14:18:39.444Z,9.42
2023-04-02T14:21:18.008Z,9.03
2023-04-02T14:23:57.701Z,8.96
2023-04-02T14:26:32.940Z,9.37
2023-04-02T14:29:07.855Z,9.92
2023-04-02T14:31:39.890Z,9.70
2023-04-02T14:34:16.108Z,9.53
2023-04-02T14:36:57.661Z,9.37
2023-04-02T14:39:33.390Z,8.75
2023-04-02T14:42:05.739Z,8.70
2023-04-02T14:44:40.936Z,8.74
2023-04-02T14:47:18.461Z,8.40
2023-04-02T14:49:50.451Z,9.44
2023-04-02T14:52:23.851Z,8.98
2023-04-02T14:54:55.572Z,8.62
2023-04-02T14:57:26.448Z,7.90
2023-04-02T15:00:03.419Z,8.13
2023-04-02T15:02:42.120Z,8.05
2023-04-02T15:05:18.370Z,7.87
2023-04-02T15:07:51.782Z,7.86
2023-04-02T15:10:26.169Z,8.18
2023-04-02T15:12:56.207Z,8.31
2023-04-02T15:15:40.478Z,8.02
2023-04-02T15:18:14.103Z,7.80
2023-04-02T15:20:52.351Z,7.66
2023-04-02T15:23:30.996Z,7.39
2023-04-02T15:26:08.464Z,7.90
2023-04-02T15:28:42.594Z,7.89
2023-04-02T15:31:15.369Z,7.50
2023-04-02T15:33:45.639Z,7.49
2023-04-02T15:36:42.646Z,7.52
2023-04-02T15:39:30.448Z,7.51
2023-04-02T15:42:09.278Z,7.36
2023-04-02T15:44:45.486Z,7.55
2023-04-02T15:47:23.080Z,7.28
2023-04-02T15:49:59.663Z,7.47
2023-04-02T15:52:37.121Z,7.38
2023-04-02T15:55:20.034Z,7.62
2023-04-02T15:58:02.713Z,7.59
2023-04-02T16:00:32.614Z,7.61
2023-04-02T16:03:20.449Z,7.58
2023-04-02T16:06:01.088Z,8.24
2023-04-02T16:08:41.973Z,7.90
2023-04-02T16:11:14.482Z,7.86
2023-04-02T16:13:43.972Z,7.30
2023-04-02T16:16:17.481Z,7.06
2023-04-02T16:18:56.649Z,6.84
2023-04-02T16:21:28.504Z,6.98
2023-04-02T16:23:56.573Z,7.08
2023-04-02T16:26:44.068Z,6.90
2023-04-02T16:29:33.514Z,6.92
2023-04-02T16:32:12.741Z,7.08
2023-04-02T16:34:47.727Z,6.68
2023-04-02T16:37:27.683Z,6.49
2023-04-02T16:40:02.443Z,6.57
2023-04-02T16:42:43.390Z,6.38
2023-04-02T16:45:29.733Z,6.30
2023-04-02T16:48:13.164Z,6.27
2023-04-02T16:50:48.685Z,6.17
2023-04-02T16:53:32.246Z,6.20
2023-04-02T16:56:29.043Z,6.25
2023-04-02T16:59:09.598Z,6.00
2023-04-02T17:01:47.491Z,5.99
2023-04-02T17:04:54.625Z,5.86
2023-04-02T17:07:34.428Z,5.85
2023-04-02T17:10:29.960Z,5.66
2023-04-02T17:13:04.037Z,5.77
2023-04-02T17:15:38.952Z,5.72
2023-04-02T17:18:16.354Z,5.67
2023-04-02T17:20:44.880Z,5.58
2023-04-02T17:23:14.717Z,5.49
2023-04-02T17:25:49.221Z,5.35
2023-04-02T17:28:24.835Z,5.29
2023-04-02T17:30:57.185Z,5.26
2023-04-02T17:33:27.330Z,5.29
2023-04-02T17:36:17.633Z,5.19
2023-04-02T17:38:52.085Z,5.00
2023-04-02T17:41:24.526Z,5.15
2023-04-02T17:43:59.053Z,5.09
2023-04-02T17:46:35.720Z,5.08
2023-04-02T17:49:12.816Z,4.96
2023-04-02T17:51:47.691Z,4.94
2023-04-02T17:54:30.648Z,4.89
2023-04-02T17:57:18.975Z,4.72
2023-04-02T18:00:00.250Z,4.71
2023-04-02T18:02:55.161Z,4.64
2023-04-02T18:05:30.749Z,4.63
2023-04-02T18:08:12.383Z,4.58
2023-04-02T18:10:47.827Z,4.40
2023-04-02T18:13:28.726Z,4.40
2023-04-02T18:16:10.567Z,4.32
2023-04-02T18:18:55.832Z,4.29
2023-04-02T18:21:29.653Z,4.29
2023-04-02T18:24:15.065Z,4.34
2023-04-02T18:26:53.711Z,4.17
2023-04-02T18:29:32.921Z,4.07
2023-04-02T18:32:31.954Z,4.07
2023-04-02T18:35:13.070Z,4.13
2023-04-02T18:37:54.329Z,3.88
2023-04-02T18:40:36.158Z,3.88
2023-04-02T18:43:16.844Z,3.87
2023-04-02T18:45:54.489Z,3.86
2023-04-02T18:48:32.583Z,3.75
2023-04-02T18:51:04.303Z,3.83
2023-04-02T18:53:34.519Z,3.78
2023-04-02T18:56:05.793Z,3.66
2023-04-02T18:58:41.814Z,3.59
2023-04-02T19:01:14.118Z,3.60
2023-04-02T19:03:47.632Z,3.53
2023-04-02T19:06:20.164Z,3.51
2023-04-02T19:08:52.179Z,3.55
2023-04-02T19:11:28.512Z,3.48
2023-04-02T19:13:58.889Z,3.39
2023-04-02T19:16:45.122Z,3.41
2023-04-02T19:19:18.633Z,3.38
2023-04-02T19:22:18.992Z,3.29
2023-04-02T19:25:03.156Z,3.42
2023-04-02T19:27:38.006Z,3.28
2023-04-02T19:30:27.849Z,3.18
2023-04-02T19:33:08.494Z,3.09
2023-04-02T19:35:42.728Z,3.16
2023-04-02T19:38:29.618Z,3.12
2023-04-02T19:41:06.118Z,2.98
2023-04-02T19:43:34.456Z,3.13
2023-04-02T19:46:03.595Z,2.89
2023-04-02T19:48:42.020Z,2.89
2023-04-02T19:51:10.588Z,2.97
2023-04-02T19:53:40.323Z,2.82
2023-04-02T19:56:08.368Z,2.86
2023-04-02T19:58:37.455Z,2.84
2023-04-02T20:01:05.753Z,2.86
2023-04-02T20:03:34.070Z,2.77
2023-04-02T20:06:02.345Z,2.77
2023-04-02T20:08:30.952Z,2.71
2023-04-02T20:11:03.389Z,2.65
2023-04-02T20:13:31.737Z,2.72
2023-04-02T20:16:01.781Z,2.51
2023-04-02T20:18:30.597Z,2.65
2023-04-02T20:21:04.166Z,2.73
2023-04-02T20:23:34.698Z,2.65
2023-04-02T20:26:05.342Z,2.48
2023-04-02T20:28:33.996Z,2.46
2023-04-02T20:31:13.266Z,2.57
2023-04-02T20:33:42.089Z,2.39
2023-04-02T20:36:11.867Z,2.34
2023-04-02T20:38:40.490Z,2.43
2023-04-02T20:41:10.935Z,2.43
2023-04-02T20:43:40.541Z,2.35
2023-04-02T20:46:10.860Z,2.20
2023-04-02T20:48:40.782Z,2.17
2023-04-02T20:51:11.269Z,2.19
2023-04-02T20:53:39.703Z,2.31
2023-04-02T20:56:08.961Z,2.09
2023-04-02T20:58:39.482Z,2.10
2023-04-02T21:01:09.646Z,2.12
2023-04-02T21:03:37.809Z,2.16
2023-04-02T21:06:06.850Z,2.13
2023-04-02T21:08:39.915Z,2.06
2023-04-02T21:11:08.452Z,2.06
2023-04-02T21:13:38.380Z,2.03
2023-04-02T21:16:13.043Z,1.95
2023-04-02T21:18:40.783Z,1.92
2023-04-02T21:21:09.745Z,1.81
2023-04-02T21:23:37.633Z,1.86
2023-04-02T21:26:07.430Z,1.82
2023-04-02T21:28:38.016Z,1.84
2023-04-02T21:31:10.548Z,1.82
2023-04-02T21:33:40.873Z,1.82
2023-04-02T21:36:10.389Z,1.73
2023-04-02T21:38:42.221Z,1.76
2023-04-02T21:41:18.152Z,1.73
2023-04-02T21:43:48.291Z,1.62
2023-04-02T21:46:21.583Z,1.61
2023-04-02T21:48:50.747Z,1.55
2023-04-02T21:51:22.043Z,1.60
2023-04-02T21:53:50.764Z,1.56
2023-04-02T21:56:19.962Z,1.52
2023-04-02T21:58:48.401Z,1.56
2023-04-02T22:01:26.616Z,1.47
2023-04-02T22:03:55.129Z,1.50
2023-04-02T22:06:24.740Z,1.45
2023-04-02T22:08:55.346Z,1.41
2023-04-02T22:11:25.952Z,1.32
2023-04-02T22:13:54.637Z,1.36
2023-04-02T22:16:25.803Z,1.50
2023-04-02T22:18:55.530Z,1.42
2023-04-02T22:21:23.840Z,1.36
2023-04-02T22:23:52.074Z,1.41
2023-04-02T22:26:22.795Z,1.33
2023-04-02T22:28:52.345Z,1.28
2023-04-02T22:31:23.910Z,1.29
2023-04-02T22:33:52.968Z,1.22
2023-04-02T22:36:22.144Z,1.45
2023-04-02T22:38:50.934Z,1.37
2023-04-02T22:41:21.497Z,1.36
2023-04-02T22:43:50.240Z,1.31
2023-04-02T22:46:19.524Z,1.23
2023-04-02T22:48:49.813Z,1.28
2023-04-02T22:51:20.188Z,1.28
2023-04-02T22:53:49.076Z,1.23
2023-04-02T22:56:19.640Z,1.17
2023-04-02T22:58:47.698Z,1.20
2023-04-02T23:01:17.825Z,1.16
2023-04-02T23:03:45.894Z,1.13
2023-04-02T23:06:17.516Z,1.15
2023-04-02T23:08:46.077Z,1.08
2023-04-02T23:11:16.375Z,1.18
2023-04-02T23:13:45.606Z,1.28
2023-04-02T23:16:15.097Z,1.04
2023-04-02T23:18:45.694Z,1.04
2023-04-02T23:21:16.262Z,0.99
2023-04-02T23:23:45.350Z,1.12
2023-04-02T23:26:15.384Z,1.15
2023-04-02T23:28:43.710Z,1.08
2023-04-02T23:31:14.490Z,1.02
2023-04-02T23:33:42.914Z,0.96
2023-04-02T23:36:12.346Z,1.04
2023-04-02T23:38:41.659Z,1.06
2023-04-02T23:41:14.322Z,1.07
2023-04-02T23:43:42.337Z,1.10
2023-04-02T23:46:10.886Z,0.99
2023-04-02T23:48:38.928Z,0.97
2023-04-02T23:51:07.387Z,1.05
2023-04-02T23:53:35.983Z,0.92
2023-04-02T23:56:06.024Z,0.91
2023-04-02T23:58:33.956Z,0.90
